createdAt,value
2023-05-25T18:10:50.304Z,14.35
2023-05-25T18:14:03.059Z,14.31
2023-05-25T18:17:15.326Z,14.33
2023-05-25T18:20:28.119Z,14.37
2023-05-25T18:23:40.492Z,14.33
2023-05-25T18:26:52.973Z,14.34
2023-05-25T18:30:05.171Z,14.36
2023-05-25T18:33:17.405Z,14.34
2023-05-25T18:36:29.582Z,14.32
2023-05-25T18:39:41.930Z,14.30
2023-05-25T18:42:54.001Z,14.30
2023-05-25T18:46:06.280Z,14.22
2023-05-25T18:49:19.235Z,14.18
2023-05-25T18:52:31.392Z,14.14
2023-05-25T18:55:44.192Z,14.13
2023-05-25T18:58:57.491Z,14.08
2023-05-25T19:02:09.999Z,14.04
2023-05-25T19:05:24.564Z,14.02
2023-05-25T19:08:36.878Z,14.02
2023-05-25T19:11:49.283Z,13.97
2023-05-25T19:15:01.907Z,13.99
2023-05-25T19:18:14.206Z,13.98
2023-05-25T19:21:27.196Z,13.95
2023-05-25T19:24:44.325Z,13.87
2023-05-25T19:27:58.749Z,13.83
2023-05-25T19:31:11.238Z,13.81
2023-05-25T19:34:23.573Z,13.86
2023-05-25T19:37:37.936Z,13.86
2023-05-25T19:40:50.158Z,13.87
2023-05-25T19:44:02.338Z,13.89
2023-05-25T19:47:14.929Z,13.87
2023-05-25T19:50:29.271Z,13.87
2023-05-25T19:53:41.823Z,13.87
2023-05-25T19:56:54.091Z,13.86
2023-05-25T20:00:11.551Z,13.86
2023-05-25T20:03:24.216Z,13.85
2023-05-25T20:06:37.736Z,13.86
2023-05-25T20:09:50.326Z,13.84
2023-05-25T20:13:02.970Z,13.84
2023-05-25T20:16:15.834Z,13.84
2023-05-25T20:19:28.163Z,13.85
2023-05-25T20:22:41.272Z,13.89
2023-05-25T20:25:53.512Z,13.90
2023-05-25T20:29:05.691Z,13.87
2023-05-25T20:32:19.459Z,13.89
2023-05-25T20:35:35.652Z,13.89
2023-05-25T20:38:49.993Z,13.87
2023-05-25T20:42:03.072Z,13.89
2023-05-25T20:45:16.763Z,13.89
2023-05-25T20:48:28.861Z,13.89
2023-05-25T20:51:46.319Z,13.87
2023-05-25T20:54:58.703Z,13.89
2023-05-25T20:58:11.233Z,13.91
2023-05-25T21:01:23.640Z,13.94
2023-05-25T21:04:36.093Z,13.92
2023-05-25T21:07:48.773Z,13.94
2023-05-25T21:11:01.385Z,13.93
2023-05-25T21:14:13.787Z,13.92
2023-05-25T21:17:26.177Z,13.91
2023-05-25T21:20:38.691Z,13.90
2023-05-25T21:23:51.271Z,13.90
2023-05-25T21:27:03.745Z,13.89
2023-05-25T21:30:19.676Z,13.86
2023-05-25T21:33:34.217Z,13.83
2023-05-25T21:36:46.501Z,13.83
2023-05-25T21:39:58.812Z,13.82
2023-05-25T21:43:12.572Z,13.79
2023-05-25T21:46:25.189Z,13.76
2023-05-25T21:49:38.029Z,13.71
2023-05-25T21:52:52.202Z,13.69
2023-05-25T21:56:04.518Z,13.68
2023-05-25T21:59:16.583Z,13.68
2023-05-25T22:02:29.043Z,13.66
2023-05-25T22:05:42.015Z,13.65
2023-05-25T22:08:54.544Z,13.56
2023-05-25T22:12:07.019Z,13.63
2023-05-25T22:15:19.443Z,13.60
2023-05-25T22:18:31.773Z,13.61
2023-05-25T22:21:43.841Z,13.61
2023-05-25T22:24:55.949Z,13.62
2023-05-25T22:28:08.081Z,13.63
2023-05-25T22:31:20.365Z,13.61
2023-05-25T22:34:32.564Z,13.61
2023-05-25T22:37:44.783Z,13.55
2023-05-25T22:40:57.092Z,13.62
2023-05-25T22:44:09.538Z,13.61
2023-05-25T22:47:21.705Z,13.59
2023-05-25T22:50:35.446Z,13.58
2023-05-25T22:53:47.782Z,13.55
2023-05-25T22:56:59.850Z,13.52
2023-05-25T23:00:14.227Z,13.42
2023-05-25T23:03:26.336Z,13.48
2023-05-25T23:06:38.741Z,13.47
2023-05-25T23:09:51.261Z,13.46
2023-05-25T23:13:03.452Z,13.43
2023-05-25T23:16:18.567Z,13.43
2023-05-25T23:19:31.240Z,13.45
2023-05-25T23:22:43.476Z,13.45
2023-05-25T23:25:57.573Z,13.46
2023-05-25T23:29:09.732Z,13.48
2023-05-25T23:32:22.080Z,13.49
2023-05-25T23:35:35.189Z,13.50
2023-05-25T23:38:47.299Z,13.54
2023-05-25T23:41:59.771Z,13.54
2023-05-25T23:45:14.383Z,13.55
2023-05-25T23:48:26.590Z,13.54
2023-05-25T23:51:39.099Z,13.55
2023-05-25T23:54:52.030Z,13.55
2023-05-25T23:58:04.111Z,13.55
